createdAt,value
2019-02-12T00:01:24.859Z,58.10
2019-02-12T00:03:52.037Z,58.60
2019-02-12T00:06:19.145Z,58.50
2019-02-12T00:08:46.871Z,58.20
2019-02-12T00:11:14.000Z,58.10
2019-02-12T00:13:41.105Z,58.70
2019-02-12T00:16:08.204Z,57.60
2019-02-12T00:18:35.323Z,57.90
2019-02-12T00:21:08.973Z,58.10
2019-02-12T00:23:31.493Z,58.20
2019-02-12T00:25:58.594Z,58.60
2019-02-12T00:28:25.696Z,58.60
2019-02-12T00:30:52.789Z,58.90
2019-02-12T00:33:19.983Z,59.10
2019-02-12T00:35:47.080Z,58.70
2019-02-12T00:38:14.164Z,59.00
2019-02-12T00:40:41.336Z,59.30
2019-02-12T00:43:08.408Z,59.10
2019-02-12T00:45:35.418Z,59.10
2019-02-12T00:48:02.521Z,59.20
2019-02-12T00:50:29.644Z,59.20
2019-02-12T00:52:56.726Z,58.80
2019-02-12T00:55:23.801Z,59.00
2019-02-12T00:57:50.968Z,59.20
2019-02-12T01:00:18.103Z,59.40
2019-02-12T01:02:45.212Z,59.50
2019-02-12T01:05:12.596Z,59.70
2019-02-12T01:07:39.687Z,59.70
2019-02-12T01:10:07.536Z,59.90
2019-02-12T01:12:34.813Z,60.00
2019-02-12T01:15:01.938Z,59.80
2019-02-12T01:17:29.254Z,59.70
2019-02-12T01:19:56.379Z,59.70
2019-02-12T01:22:23.706Z,59.70
2019-02-12T01:24:50.786Z,59.70
2019-02-12T01:27:17.937Z,59.50
2019-02-12T01:29:45.041Z,59.30
2019-02-12T01:32:12.179Z,59.10
2019-02-12T01:34:39.268Z,59.10
2019-02-12T01:37:06.436Z,59.80
2019-02-12T01:39:33.565Z,59.50
2019-02-12T01:42:01.849Z,59.00
2019-02-12T01:44:28.973Z,59.80
2019-02-12T01:46:56.073Z,60.80
2019-02-12T01:49:23.243Z,60.90
2019-02-12T01:51:50.362Z,61.10
2019-02-12T01:54:17.370Z,60.80
2019-02-12T01:56:44.485Z,60.90
2019-02-12T01:59:11.582Z,60.50
2019-02-12T02:01:38.682Z,60.50
2019-02-12T02:04:05.829Z,60.90
2019-02-12T02:06:32.925Z,60.20
2019-02-12T02:09:00.154Z,60.30
2019-02-12T02:11:27.400Z,60.30
2019-02-12T02:13:54.587Z,60.30
2019-02-12T02:16:21.716Z,60.00
2019-02-12T02:18:48.934Z,60.10
2019-02-12T02:21:16.122Z,59.90
2019-02-12T02:23:43.320Z,59.70
2019-02-12T02:26:10.443Z,58.80
2019-02-12T02:28:37.556Z,59.00
2019-02-12T02:31:04.623Z,59.30
2019-02-12T02:33:31.747Z,59.60
2019-02-12T02:35:58.940Z,59.80
2019-02-12T02:38:26.026Z,59.70
2019-02-12T02:40:53.120Z,59.80
2019-02-12T02:43:20.303Z,59.80
2019-02-12T02:45:47.409Z,59.80
2019-02-12T02:48:14.500Z,60.00
2019-02-12T02:50:41.600Z,60.00
2019-02-12T02:53:08.697Z,60.00
2019-02-12T02:55:35.784Z,60.60
2019-02-12T02:58:02.894Z,60.10
2019-02-12T03:00:29.995Z,59.80
2019-02-12T03:02:57.095Z,60.00
2019-02-12T03:05:25.201Z,60.00
2019-02-12T03:07:52.307Z,60.30
2019-02-12T03:10:19.403Z,60.20
2019-02-12T03:12:46.516Z,60.20
2019-02-12T03:15:13.740Z,59.80
2019-02-12T03:17:40.832Z,60.20
2019-02-12T03:20:08.412Z,60.00
2019-02-12T03:22:35.597Z,60.10
2019-02-12T03:25:02.900Z,60.50
2019-02-12T03:27:29.957Z,60.70
2019-02-12T03:29:57.096Z,61.00
2019-02-12T03:32:24.157Z,61.00
2019-02-12T03:34:51.264Z,61.10
2019-02-12T03:37:18.361Z,60.70
2019-02-12T03:39:46.293Z,60.60
2019-02-12T03:42:13.399Z,60.60
2019-02-12T03:44:41.089Z,60.70
2019-02-12T03:47:08.197Z,60.70
2019-02-12T03:49:35.481Z,60.70
2019-02-12T03:52:02.572Z,60.50
2019-02-12T03:54:29.673Z,60.90
2019-02-12T03:56:56.802Z,60.40
2019-02-12T03:59:23.897Z,60.40
2019-02-12T04:01:51.014Z,61.00
2019-02-12T04:04:18.115Z,60.40
2019-02-12T04:06:45.606Z,60.60
2019-02-12T04:09:12.706Z,60.60
2019-02-12T04:11:39.791Z,62.40
2019-02-12T04:14:06.946Z,61.30
2019-02-12T04:16:34.144Z,60.90
2019-02-12T04:19:01.369Z,61.00
2019-02-12T04:21:28.563Z,61.20
2019-02-12T04:23:55.639Z,61.10
2019-02-12T04:26:22.778Z,61.10
2019-02-12T04:28:49.864Z,61.10
2019-02-12T04:31:16.990Z,61.20
2019-02-12T04:33:44.116Z,61.30
2019-02-12T04:36:11.253Z,60.90
2019-02-12T04:38:38.388Z,60.90
2019-02-12T04:41:05.592Z,61.10
2019-02-12T04:43:32.692Z,61.20
2019-02-12T04:45:59.854Z,61.20
2019-02-12T04:48:27.832Z,61.70
2019-02-12T04:50:54.820Z,61.30
2019-02-12T04:53:21.971Z,61.20
2019-02-12T04:55:49.072Z,62.40
2019-02-12T04:58:16.223Z,61.60
2019-02-12T05:00:43.271Z,61.50
2019-02-12T05:03:10.380Z,61.40
2019-02-12T05:05:37.584Z,61.60
2019-02-12T05:08:04.705Z,61.70
2019-02-12T05:10:33.635Z,61.60
2019-02-12T05:13:00.990Z,61.60
2019-02-12T05:15:28.075Z,62.30
2019-02-12T05:17:55.204Z,61.70
2019-02-12T05:20:22.315Z,61.40
2019-02-12T05:22:49.480Z,61.10
2019-02-12T05:25:16.590Z,61.40
2019-02-12T05:27:43.841Z,62.20
2019-02-12T05:30:10.939Z,62.20
2019-02-12T05:32:38.095Z,62.80
2019-02-12T05:35:05.451Z,62.40
2019-02-12T05:37:32.548Z,62.30
2019-02-12T05:39:59.681Z,61.90
2019-02-12T05:42:26.965Z,61.60
2019-02-12T05:44:54.088Z,61.20
2019-02-12T05:47:21.204Z,60.90
2019-02-12T05:49:48.336Z,60.90
2019-02-12T05:52:15.455Z,61.10
2019-02-12T05:54:42.572Z,61.40
2019-02-12T05:57:09.705Z,61.40
2019-02-12T05:59:36.804Z,61.50
2019-02-12T06:02:03.917Z,61.70
2019-02-12T06:04:31.024Z,62.00
2019-02-12T06:06:58.177Z,61.90
2019-02-12T06:09:25.344Z,62.00
2019-02-12T06:11:52.461Z,61.90
2019-02-12T06:14:19.653Z,61.80
2019-02-12T06:16:46.879Z,61.80
2019-02-12T06:19:14.015Z,62.40
2019-02-12T06:21:42.302Z,62.20
2019-02-12T06:24:09.386Z,62.50
2019-02-12T06:26:36.500Z,62.00
2019-02-12T06:29:03.595Z,62.20
2019-02-12T06:31:30.723Z,62.00
2019-02-12T06:33:57.816Z,62.20
2019-02-12T06:36:24.924Z,62.20
2019-02-12T06:38:52.059Z,62.60
2019-02-12T06:41:19.205Z,62.50
2019-02-12T06:43:46.321Z,62.50
2019-02-12T06:46:13.436Z,62.80
2019-02-12T06:48:40.533Z,62.10
2019-02-12T06:51:08.048Z,61.90
2019-02-12T06:53:35.182Z,62.60
2019-02-12T06:56:03.046Z,62.10
2019-02-12T06:58:30.179Z,62.30
2019-02-12T07:00:57.274Z,62.00
2019-02-12T07:03:26.553Z,62.10
2019-02-12T07:05:55.709Z,62.20
2019-02-12T07:08:28.832Z,62.10
2019-02-12T07:10:56.711Z,62.00
2019-02-12T07:13:29.572Z,62.20
2019-02-12T07:16:11.113Z,62.70
2019-02-12T07:19:01.316Z,62.90
2019-02-12T07:21:47.954Z,62.30
2019-02-12T07:24:30.884Z,62.80
2019-02-12T07:27:35.876Z,62.90
2019-02-12T07:30:21.673Z,62.70
2019-02-12T07:33:13.363Z,62.50
2019-02-12T07:35:51.601Z,62.80
2019-02-12T07:38:38.250Z,62.90
2019-02-12T07:41:19.575Z,63.10
2019-02-12T07:43:57.203Z,63.20
2019-02-12T07:46:30.172Z,62.90
2019-02-12T07:49:01.334Z,62.60
2019-02-12T07:51:50.773Z,62.70
2019-02-12T07:54:25.327Z,63.20
2019-02-12T07:56:59.406Z,63.30
2019-02-12T07:59:47.964Z,63.30
2019-02-12T08:02:20.901Z,63.40
2019-02-12T08:05:10.340Z,63.00
2019-02-12T08:08:01.929Z,63.10
2019-02-12T08:10:45.372Z,63.40
2019-02-12T08:13:28.521Z,63.50
2019-02-12T08:15:58.961Z,63.50
2019-02-12T08:18:29.280Z,63.60
2019-02-12T08:21:18.680Z,63.60
2019-02-12T08:23:55.403Z,63.60
2019-02-12T08:26:26.105Z,63.70
2019-02-12T08:29:25.290Z,63.80
2019-02-12T08:31:56.157Z,63.50
2019-02-12T08:34:33.364Z,63.10
2019-02-12T08:37:11.876Z,62.90
2019-02-12T08:39:58.930Z,62.80
2019-02-12T08:43:00.751Z,62.70
2019-02-12T08:45:50.213Z,62.60
2019-02-12T08:48:42.690Z,62.50
2019-02-12T08:51:20.992Z,62.90
2019-02-12T08:54:01.135Z,63.40
2019-02-12T08:56:47.753Z,63.30
2019-02-12T08:59:37.059Z,63.70
2019-02-12T09:02:29.469Z,62.60
2019-02-12T09:05:16.107Z,63.80
2019-02-12T09:08:11.796Z,62.90
2019-02-12T09:10:50.387Z,63.10
2019-02-12T09:13:43.052Z,62.30
2019-02-12T09:16:32.660Z,61.80
2019-02-12T09:19:14.769Z,61.10
2019-02-12T09:22:01.453Z,61.10
2019-02-12T09:24:33.548Z,60.50
2019-02-12T09:27:10.414Z,60.00
2019-02-12T09:30:00.325Z,60.30
2019-02-12T09:32:42.317Z,60.10
2019-02-12T09:35:34.984Z,60.10
2019-02-12T09:38:19.869Z,59.10
2019-02-12T09:40:59.251Z,59.30
2019-02-12T09:43:44.568Z,60.00
2019-02-12T09:46:49.199Z,60.20
2019-02-12T09:49:29.540Z,60.50
2019-02-12T09:52:19.329Z,60.80
2019-02-12T09:55:20.978Z,59.90
2019-02-12T09:58:06.530Z,59.70
2019-02-12T10:00:56.103Z,58.80
2019-02-12T10:03:44.888Z,58.10
2019-02-12T10:06:30.422Z,58.00
2019-02-12T10:09:05.821Z,57.20
2019-02-12T10:12:10.766Z,56.70
2019-02-12T10:15:06.492Z,56.70
2019-02-12T10:17:58.964Z,56.20
2019-02-12T10:20:32.220Z,56.10
2019-02-12T10:23:09.797Z,56.20
2019-02-12T10:25:38.681Z,56.20
2019-02-12T10:28:31.513Z,56.30
2019-02-12T10:31:18.463Z,57.10
2019-02-12T10:33:45.559Z,56.20
2019-02-12T10:36:12.763Z,56.30
2019-02-12T10:38:39.948Z,55.20
2019-02-12T10:41:07.066Z,56.00
2019-02-12T10:43:34.176Z,56.20
2019-02-12T10:46:01.314Z,56.00
2019-02-12T10:48:28.384Z,56.10
2019-02-12T10:50:55.484Z,55.00
2019-02-12T10:53:22.680Z,56.20
2019-02-12T10:55:50.869Z,54.40
2019-02-12T10:58:18.484Z,55.80
2019-02-12T11:00:45.612Z,54.50
2019-02-12T11:03:12.679Z,55.10
2019-02-12T11:05:39.996Z,54.70
2019-02-12T11:08:07.086Z,54.50
2019-02-12T11:10:34.169Z,53.20
2019-02-12T11:13:01.297Z,53.80
2019-02-12T11:15:29.524Z,52.60
2019-02-12T11:17:56.640Z,52.20
2019-02-12T11:20:23.880Z,53.70
2019-02-12T11:22:51.072Z,52.50
2019-02-12T11:25:18.204Z,53.00
2019-02-12T11:27:45.277Z,52.60
2019-02-12T11:30:12.397Z,52.00
2019-02-12T11:32:39.492Z,51.30
2019-02-12T11:35:06.843Z,51.50
2019-02-12T11:37:33.997Z,51.70
2019-02-12T11:40:01.180Z,50.40
2019-02-12T11:42:28.303Z,50.70
2019-02-12T11:44:55.485Z,50.70
2019-02-12T11:47:22.562Z,50.60
2019-02-12T11:49:49.659Z,50.60
2019-02-12T11:52:16.785Z,50.90
2019-02-12T11:54:44.073Z,49.70
2019-02-12T11:57:11.295Z,47.70
2019-02-12T11:59:38.376Z,50.00
2019-02-12T12:02:06.549Z,49.60
2019-02-12T12:04:33.685Z,50.00
2019-02-12T12:07:00.884Z,48.60
2019-02-12T12:09:27.997Z,48.00
2019-02-12T12:11:55.085Z,47.10
2019-02-12T12:14:22.205Z,47.80
2019-02-12T12:16:49.316Z,46.30
2019-02-12T12:19:16.588Z,47.30
2019-02-12T12:21:45.439Z,47.10
2019-02-12T12:24:12.732Z,45.20
2019-02-12T12:26:39.896Z,46.80
2019-02-12T12:29:07.040Z,45.30
2019-02-12T12:31:34.140Z,45.40
2019-02-12T12:34:01.409Z,45.40
2019-02-12T12:36:28.512Z,45.40
2019-02-12T12:38:55.651Z,45.10
2019-02-12T12:41:22.854Z,44.50
2019-02-12T12:43:49.976Z,45.30
2019-02-12T12:46:16.993Z,45.50
2019-02-12T12:48:44.120Z,45.00
2019-02-12T12:51:11.199Z,44.70
2019-02-12T12:53:38.333Z,44.40
2019-02-12T12:56:05.535Z,44.00
2019-02-12T12:58:32.636Z,45.30
2019-02-12T13:00:59.760Z,42.40
2019-02-12T13:03:27.218Z,43.90
2019-02-12T13:05:54.404Z,44.60
2019-02-12T13:08:21.602Z,44.90
2019-02-12T13:10:48.686Z,43.20
2019-02-12T13:13:16.990Z,44.20
2019-02-12T13:15:44.335Z,44.50
2019-02-12T13:18:12.443Z,44.30
2019-02-12T13:20:39.476Z,43.80
2019-02-12T13:23:06.950Z,44.00
2019-02-12T13:25:34.073Z,43.10
2019-02-12T13:28:01.263Z,43.80
2019-02-12T13:30:28.401Z,44.10
2019-02-12T13:32:55.490Z,43.60
2019-02-12T13:35:22.616Z,43.30
2019-02-12T13:37:49.758Z,43.60
2019-02-12T13:40:16.840Z,43.60
2019-02-12T13:42:43.972Z,43.80
2019-02-12T13:45:11.800Z,44.20
2019-02-12T13:47:38.920Z,43.40
2019-02-12T13:50:06.361Z,44.60
2019-02-12T13:52:33.488Z,44.70
2019-02-12T13:55:00.680Z,43.90
2019-02-12T13:57:27.817Z,44.10
2019-02-12T13:59:54.910Z,44.50
2019-02-12T14:02:22.003Z,44.50
2019-02-12T14:04:49.207Z,43.10
2019-02-12T14:07:16.276Z,44.60
2019-02-12T14:09:43.379Z,45.10
2019-02-12T14:12:10.572Z,42.20
2019-02-12T14:14:37.676Z,44.60
2019-02-12T14:17:04.758Z,43.30
2019-02-12T14:19:32.006Z,40.10
2019-02-12T14:21:59.200Z,44.00
2019-02-12T14:24:26.327Z,43.80
2019-02-12T14:26:53.416Z,43.20
2019-02-12T14:29:20.508Z,41.80
2019-02-12T14:31:52.948Z,42.50
2019-02-12T14:34:16.639Z,42.10
2019-02-12T14:36:43.784Z,41.30
2019-02-12T14:39:10.867Z,40.60
2019-02-12T14:41:38.008Z,41.50
2019-02-12T14:44:05.096Z,41.90
2019-02-12T14:46:33.225Z,41.80
2019-02-12T14:49:00.321Z,42.10
2019-02-12T14:51:27.554Z,40.30
2019-02-12T14:53:54.895Z,41.20
2019-02-12T14:56:22.001Z,40.70
2019-02-12T14:58:49.111Z,39.70
2019-02-12T15:01:16.204Z,39.80
2019-02-12T15:03:43.489Z,39.30
2019-02-12T15:06:10.668Z,38.00
2019-02-12T15:08:37.894Z,39.80
2019-02-12T15:11:04.993Z,39.00
2019-02-12T15:13:32.095Z,40.10
2019-02-12T15:15:59.233Z,40.10
2019-02-12T15:18:26.360Z,40.10
2019-02-12T15:20:54.366Z,39.10
2019-02-12T15:23:21.598Z,39.80
2019-02-12T15:25:48.736Z,38.80
2019-02-12T15:28:15.864Z,39.80
2019-02-12T15:30:43.089Z,41.00
2019-02-12T15:33:10.221Z,41.10
2019-02-12T15:35:37.352Z,41.60
2019-02-12T15:38:04.691Z,41.80
2019-02-12T15:40:31.812Z,41.80
2019-02-12T15:42:59.013Z,42.00
2019-02-12T15:45:26.184Z,42.50
2019-02-12T15:47:53.401Z,41.80
2019-02-12T15:50:20.588Z,41.60
2019-02-12T15:52:47.704Z,42.00
2019-02-12T15:55:14.932Z,42.30
2019-02-12T15:57:45.164Z,42.50
2019-02-12T16:00:12.286Z,43.20
2019-02-12T16:02:39.614Z,43.40
2019-02-12T16:05:08.478Z,43.50
2019-02-12T16:07:36.580Z,43.30
2019-02-12T16:10:04.306Z,43.60
2019-02-12T16:12:31.436Z,43.70
2019-02-12T16:14:59.664Z,43.80
2019-02-12T16:17:27.601Z,44.10
2019-02-12T16:19:54.837Z,44.20
2019-02-12T16:22:22.016Z,44.10
2019-02-12T16:24:49.102Z,43.90
2019-02-12T16:27:16.240Z,44.20
2019-02-12T16:29:43.343Z,43.80
2019-02-12T16:32:10.488Z,43.50
2019-02-12T16:34:37.614Z,44.00
2019-02-12T16:37:04.743Z,44.30
2019-02-12T16:39:31.906Z,44.30
2019-02-12T16:41:59.037Z,44.30
2019-02-12T16:44:26.146Z,44.20
2019-02-12T16:46:53.286Z,44.00
2019-02-12T16:49:20.485Z,44.30
2019-02-12T16:51:47.604Z,44.70
2019-02-12T16:54:14.745Z,44.60
2019-02-12T16:56:41.907Z,45.30
2019-02-12T16:59:09.057Z,45.50
2019-02-12T17:01:36.171Z,46.40
2019-02-12T17:04:03.411Z,45.70
2019-02-12T17:06:30.591Z,45.70
2019-02-12T17:08:57.715Z,46.00
2019-02-12T17:11:24.843Z,46.10
2019-02-12T17:13:51.993Z,46.40
2019-02-12T17:16:19.365Z,46.70
2019-02-12T17:18:46.587Z,46.80
2019-02-12T17:21:13.812Z,47.00
2019-02-12T17:23:40.890Z,47.20
2019-02-12T17:26:16.114Z,47.30
2019-02-12T17:28:37.016Z,47.50
2019-02-12T17:31:04.335Z,47.40
2019-02-12T17:33:31.797Z,47.50
2019-02-12T17:35:58.916Z,47.60
2019-02-12T17:38:26.067Z,47.70
2019-02-12T17:40:53.271Z,47.80
2019-02-12T17:43:20.407Z,48.00
2019-02-12T17:45:47.796Z,48.10
2019-02-12T17:48:14.928Z,48.20
2019-02-12T17:50:42.102Z,48.20
2019-02-12T17:53:09.206Z,48.30
2019-02-12T17:55:36.355Z,48.40
2019-02-12T17:58:03.578Z,48.50
2019-02-12T18:00:33.437Z,48.70
2019-02-12T18:03:00.724Z,49.00
2019-02-12T18:05:27.858Z,49.10
2019-02-12T18:07:54.961Z,49.10
2019-02-12T18:10:22.112Z,49.10
2019-02-12T18:12:49.204Z,49.10
2019-02-12T18:15:16.313Z,49.10
2019-02-12T18:17:44.516Z,49.30
2019-02-12T18:20:11.803Z,49.20
2019-02-12T18:22:39.024Z,49.20
2019-02-12T18:25:06.811Z,49.40
2019-02-12T18:27:34.026Z,49.60
2019-02-12T18:30:01.184Z,49.70
2019-02-12T18:32:28.276Z,49.90
2019-02-12T18:34:55.397Z,49.90
2019-02-12T18:37:22.568Z,49.90
2019-02-12T18:39:49.704Z,50.10
2019-02-12T18:42:16.944Z,50.00
2019-02-12T18:44:44.025Z,49.90
2019-02-12T18:47:11.202Z,50.00
2019-02-12T18:49:38.287Z,50.00
2019-02-12T18:52:05.504Z,50.00
2019-02-12T18:54:32.793Z,50.10
2019-02-12T18:56:59.955Z,50.40
2019-02-12T18:59:27.237Z,50.50
2019-02-12T19:01:54.367Z,50.60
2019-02-12T19:04:21.594Z,50.70
2019-02-12T19:06:48.804Z,50.70
2019-02-12T19:09:16.053Z,50.70
2019-02-12T19:11:52.669Z,50.80
2019-02-12T19:14:13.102Z,50.70
2019-02-12T19:16:40.399Z,50.70
2019-02-12T19:19:07.656Z,50.80
2019-02-12T19:21:35.049Z,50.90
2019-02-12T19:24:02.448Z,50.80
2019-02-12T19:26:29.565Z,50.80
2019-02-12T19:28:56.704Z,50.90
2019-02-12T19:31:23.780Z,51.10
2019-02-12T19:33:51.056Z,51.10
2019-02-12T19:36:18.189Z,51.30
2019-02-12T19:38:46.490Z,51.50
2019-02-12T19:41:15.077Z,51.50
2019-02-12T19:43:42.260Z,51.60
2019-02-12T19:46:10.436Z,51.70
2019-02-12T19:48:38.426Z,51.50
2019-02-12T19:51:05.561Z,51.50
2019-02-12T19:53:34.594Z,51.50
2019-02-12T19:56:01.907Z,51.50
2019-02-12T19:58:29.592Z,51.70
2019-02-12T20:00:56.761Z,51.90
2019-02-12T20:03:24.952Z,51.80
2019-02-12T20:05:52.109Z,52.10
2019-02-12T20:08:19.224Z,52.10
2019-02-12T20:10:46.686Z,52.00
2019-02-12T20:13:13.881Z,52.10
2019-02-12T20:15:42.067Z,52.10
2019-02-12T20:18:09.213Z,52.30
2019-02-12T20:20:36.463Z,52.30
2019-02-12T20:23:03.710Z,52.40
2019-02-12T20:25:33.223Z,52.40
2019-02-12T20:28:00.723Z,52.80
2019-02-12T20:30:27.847Z,52.80
2019-02-12T20:32:55.018Z,52.80
2019-02-12T20:35:22.186Z,52.80
2019-02-12T20:37:49.430Z,52.80
2019-02-12T20:40:16.539Z,52.90
2019-02-12T20:42:43.801Z,52.80
2019-02-12T20:45:11.645Z,52.60
2019-02-12T20:47:38.867Z,52.60
2019-02-12T20:50:06.655Z,52.70
2019-02-12T20:52:33.780Z,52.60
2019-02-12T20:55:01.366Z,52.60
2019-02-12T20:57:28.605Z,52.60
2019-02-12T20:59:56.158Z,52.60
2019-02-12T21:02:23.332Z,52.50
2019-02-12T21:04:50.455Z,52.90
2019-02-12T21:07:17.637Z,52.80
2019-02-12T21:09:44.791Z,53.00
2019-02-12T21:12:11.997Z,53.10
2019-02-12T21:14:39.476Z,53.20
2019-02-12T21:17:06.624Z,53.20
2019-02-12T21:19:34.073Z,53.30
2019-02-12T21:22:03.149Z,53.30
2019-02-12T21:24:33.199Z,53.30
2019-02-12T21:27:02.237Z,53.40
2019-02-12T21:29:47.986Z,53.20
2019-02-12T21:32:15.374Z,53.30
2019-02-12T21:34:42.566Z,53.30
2019-02-12T21:37:09.700Z,53.30
2019-02-12T21:39:36.892Z,53.30
2019-02-12T21:42:04.040Z,53.50
2019-02-12T21:44:31.208Z,53.80
2019-02-12T21:46:58.306Z,53.70
2019-02-12T21:49:25.458Z,54.00
2019-02-12T21:51:52.541Z,54.00
2019-02-12T21:54:19.651Z,54.20
2019-02-12T21:56:46.764Z,54.40
2019-02-12T21:59:13.868Z,54.50
2019-02-12T22:01:41.125Z,55.40
2019-02-12T22:04:08.217Z,56.00
2019-02-12T22:06:35.343Z,55.50
2019-02-12T22:09:03.928Z,55.50
2019-02-12T22:11:33.665Z,55.60
2019-02-12T22:14:00.792Z,55.70
2019-02-12T22:16:27.980Z,55.40
2019-02-12T22:18:55.096Z,55.30
2019-02-12T22:21:22.263Z,55.50
2019-02-12T22:23:49.391Z,55.30
2019-02-12T22:26:16.484Z,55.10
2019-02-12T22:28:43.847Z,55.20
2019-02-12T22:31:10.956Z,55.20
2019-02-12T22:33:38.040Z,55.10
2019-02-12T22:36:05.163Z,55.50
2019-02-12T22:38:32.299Z,55.40
2019-02-12T22:40:59.392Z,55.40
2019-02-12T22:43:26.552Z,55.40
2019-02-12T22:45:53.694Z,55.30
2019-02-12T22:48:20.835Z,55.40
2019-02-12T22:50:47.927Z,55.10
2019-02-12T22:53:15.044Z,55.20
2019-02-12T22:55:42.160Z,55.00
2019-02-12T22:58:09.243Z,55.10
2019-02-12T23:00:51.263Z,55.60
2019-02-12T23:03:18.699Z,55.30
2019-02-12T23:05:46.141Z,55.40
2019-02-12T23:08:13.315Z,55.50
2019-02-12T23:10:40.499Z,56.40
2019-02-12T23:13:07.616Z,55.70
2019-02-12T23:15:35.047Z,55.80
2019-02-12T23:18:02.182Z,55.70
2019-02-12T23:20:30.433Z,55.80
2019-02-12T23:22:57.572Z,55.70
2019-02-12T23:25:24.724Z,55.70
2019-02-12T23:27:57.597Z,55.70
2019-02-12T23:30:21.013Z,55.60
2019-02-12T23:32:49.136Z,55.80
2019-02-12T23:35:16.389Z,55.60
2019-02-12T23:37:43.405Z,55.50
2019-02-12T23:40:10.529Z,55.50
2019-02-12T23:42:37.677Z,55.50
2019-02-12T23:45:04.780Z,55.30
2019-02-12T23:47:32.916Z,55.30
2019-02-12T23:49:59.980Z,55.20
2019-02-12T23:52:27.236Z,55.40
2019-02-12T23:54:54.384Z,55.50
2019-02-12T23:57:21.701Z,55.30
2019-02-12T23:59:48.767Z,55.30
